Time;durP1;ratioP1;P1;durP2;ratioP2;P2;SDS_P1;SDS_P2;PMS_P1;PMS_P2;Temp;Humidity;BMP_temperature;BMP_pressure;BME280_temperature;BME280_humidity;BME280_pressure;Samples;Min_cycle;Max_cycle;Signal;HPM_P1;HPM_P2
2021/11/22 00:02:39;;;;;;;0.90;0.50;;;21.10;54.10;;;;;;6214048;28;20125;-68
2021/11/22 00:05:40;;;;;;;0.73;0.60;;;21.10;54.10;;;;;;6216923;28;20018;-68
2021/11/22 00:08:41;;;;;;;0.85;0.70;;;21.10;54.10;;;;;;6219722;28;20084;-68
2021/11/22 00:11:41;;;;;;;0.77;0.50;;;21.10;54.10;;;;;;6219885;28;20440;-68
2021/11/22 00:14:42;;;;;;;0.80;0.70;;;21.10;54.10;;;;;;6202976;28;20457;-68
2021/11/22 00:17:43;;;;;;;1.77;0.80;;;21.10;54.80;;;;;;6208593;28;20034;-69
2021/11/22 00:20:44;;;;;;;0.60;0.60;;;21.10;54.10;;;;;;6218497;28;20037;-68
2021/11/22 00:23:44;;;;;;;0.80;0.70;;;21.10;54.10;;;;;;6218957;28;20533;-68
2021/11/22 00:26:45;;;;;;;0.63;0.60;;;21.10;54.10;;;;;;6218886;28;20032;-69
2021/11/22 00:29:46;;;;;;;0.45;0.43;;;21.10;54.10;;;;;;6216832;28;20027;-68
2021/11/22 00:32:47;;;;;;;1.13;0.73;;;21.10;54.10;;;;;;6208842;28;20105;-68
2021/11/22 00:35:49;;;;;;;0.68;0.60;;;21.10;54.10;;;;;;6203627;28;20112;-68
2021/11/22 00:38:50;;;;;;;0.50;0.50;;;21.10;54.10;;;;;;6196004;28;20030;-68
2021/11/22 00:41:51;;;;;;;0.57;0.57;;;21.10;54.10;;;;;;6199657;28;20072;-68
2021/11/22 00:44:52;;;;;;;0.77;0.70;;;21.10;54.10;;;;;;6218815;28;20084;-68
2021/11/22 00:47:53;;;;;;;1.17;0.63;;;21.10;54.00;;;;;;6218676;28;20032;-68
2021/11/22 00:50:55;;;;;;;1.15;0.73;;;21.10;54.00;;;;;;6218995;28;20041;-68
2021/11/22 00:53:57;;;;;;;0.52;0.50;;;21.10;54.00;;;;;;6217471;28;20511;-68
2021/11/22 00:56:58;;;;;;;0.73;0.60;;;21.10;54.10;;;;;;6233305;28;20124;-68
2021/11/22 00:59:59;;;;;;;1.02;0.63;;;21.10;54.00;;;;;;6218603;28;20026;-68
2021/11/22 01:03:00;;;;;;;0.60;0.40;;;21.10;54.10;;;;;;6233636;28;20380;-68
2021/11/22 01:06:01;;;;;;;1.58;0.75;;;21.10;54.10;;;;;;6217311;28;20030;-68
2021/11/22 01:09:02;;;;;;;0.75;0.65;;;21.10;54.10;;;;;;6202371;28;20438;-68
2021/11/22 01:12:03;;;;;;;1.02;0.60;;;21.10;54.00;;;;;;6193079;28;20113;-68
2021/11/22 01:15:09;;;;;;;1.05;0.60;;;21.10;54.10;;;;;;6196759;28;20081;-68
2021/11/22 01:18:10;;;;;;;1.25;0.60;;;21.10;54.00;;;;;;6199846;28;20054;-68
2021/11/22 01:21:11;;;;;;;0.85;0.57;;;21.10;54.10;;;;;;6218102;28;20062;-68
2021/11/22 01:24:12;;;;;;;0.98;0.60;;;21.10;54.00;;;;;;6217919;28;20498;-68
2021/11/22 01:27:13;;;;;;;0.52;0.40;;;21.10;54.10;;;;;;6200510;28;20472;-68
2021/11/22 01:30:14;;;;;;;1.40;0.68;;;21.10;54.10;;;;;;6192414;28;20036;-68
2021/11/22 01:33:15;;;;;;;1.00;0.68;;;21.10;54.00;;;;;;6193314;28;20026;-68
2021/11/22 01:36:15;;;;;;;1.00;0.70;;;21.10;54.00;;;;;;6194574;28;20615;-68
2021/11/22 01:39:16;;;;;;;0.60;0.50;;;21.10;54.10;;;;;;6216067;28;20026;-68
2021/11/22 01:42:17;;;;;;;0.82;0.60;;;21.10;54.00;;;;;;6209464;28;20023;-68
2021/11/22 01:45:19;;;;;;;0.60;0.60;;;21.10;54.00;;;;;;6207934;28;20022;-68
2021/11/22 01:48:20;;;;;;;0.73;0.55;;;21.10;54.00;;;;;;6209500;28;20030;-68
2021/11/22 01:51:21;;;;;;;0.90;0.57;;;21.10;54.00;;;;;;6216196;28;20037;-68
2021/11/22 01:54:22;;;;;;;0.95;0.47;;;21.10;54.00;;;;;;6193642;28;20031;-68
2021/11/22 01:57:23;;;;;;;0.77;0.68;;;21.10;54.00;;;;;;6199824;28;20065;-68
2021/11/22 02:00:29;;;;;;;0.82;0.50;;;21.10;54.00;;;;;;6217258;28;20057;-68
2021/11/22 02:03:30;;;;;;;0.63;0.50;;;21.10;54.00;;;;;;6202527;28;20030;-68
2021/11/22 02:06:30;;;;;;;0.50;0.50;;;21.10;54.00;;;;;;6193079;28;20392;-68
2021/11/22 02:09:32;;;;;;;0.45;0.45;;;21.00;54.00;;;;;;6212804;28;20530;-68
2021/11/22 02:12:33;;;;;;;0.70;0.57;;;21.10;54.10;;;;;;6211836;28;20109;-68
2021/11/22 02:15:35;;;;;;;0.82;0.30;;;21.10;54.00;;;;;;6213415;28;20037;-68
2021/11/22 02:18:36;;;;;;;0.70;0.50;;;21.00;54.00;;;;;;6216779;28;20026;-68
2021/11/22 02:21:37;;;;;;;0.80;0.50;;;21.10;54.00;;;;;;6215646;28;20053;-68
2021/11/22 02:24:37;;;;;;;0.30;0.30;;;21.00;53.90;;;;;;6198108;28;20390;-68
2021/11/22 02:27:39;;;;;;;0.60;0.55;;;21.10;54.00;;;;;;6191727;28;20026;-68
2021/11/22 02:30:44;;;;;;;0.60;0.40;;;21.10;54.00;;;;;;6192418;28;20101;-68
2021/11/22 02:33:45;;;;;;;;;;;21.00;53.90;;;;;;6212802;28;20053;-68
2021/11/22 02:36:45;;;;;;;0.70;0.60;;;21.00;53.90;;;;;;6211232;28;19910;-68
2021/11/22 02:39:46;;;;;;;0.52;0.45;;;21.10;53.90;;;;;;6192949;28;20030;-68
2021/11/22 02:42:47;;;;;;;0.40;0.40;;;21.00;53.90;;;;;;6204233;28;20052;-68
2021/11/22 02:45:49;;;;;;;0.55;0.55;;;21.10;53.90;;;;;;6216568;28;20022;-68
2021/11/22 02:48:49;;;;;;;0.70;0.47;;;21.00;53.90;;;;;;6215994;28;20034;-68
2021/11/22 02:51:51;;;;;;;1.42;0.60;;;21.10;53.90;;;;;;6231315;28;20871;-68
2021/11/22 02:54:51;;;;;;;0.52;0.40;;;21.00;53.90;;;;;;6204245;28;20459;-68
2021/11/22 02:57:52;;;;;;;0.60;0.50;;;21.00;53.90;;;;;;6202050;28;20085;-68
2021/11/22 03:00:53;;;;;;;0.63;0.52;;;21.00;53.90;;;;;;6215956;28;20395;-68
2021/11/22 03:03:55;;;;;;;0.40;0.30;;;21.00;53.90;;;;;;6231185;28;20022;-68
2021/11/22 03:06:55;;;;;;;1.52;0.43;;;21.00;53.90;;;;;;6214808;28;20030;-68
2021/11/22 03:09:56;;;;;;;0.22;0.22;;;21.00;53.90;;;;;;6191919;28;20491;-68
2021/11/22 03:12:59;;;;;;;1.05;0.52;;;21.00;53.90;;;;;;6195804;28;20048;-68
2021/11/22 03:16:00;;;;;;;0.28;0.28;;;21.00;53.90;;;;;;6191855;28;20030;-68
2021/11/22 03:19:01;;;;;;;0.50;0.40;;;21.00;53.90;;;;;;6207607;28;20610;-68
2021/11/22 03:22:02;;;;;;;0.55;0.35;;;21.00;53.90;;;;;;6203136;28;20113;-68
2021/11/22 03:25:05;;;;;;;0.47;0.40;;;21.00;53.90;;;;;;6215259;28;20021;-68
2021/11/22 03:28:07;;;;;;;0.40;0.35;;;21.00;53.90;;;;;;6198068;28;20030;-68
2021/11/22 03:31:07;;;;;;;0.30;0.30;;;21.00;53.90;;;;;;6206992;28;20030;-68
2021/11/22 03:34:10;;;;;;;0.32;0.32;;;21.00;54.60;;;;;;6215483;28;20030;-68
2021/11/22 03:37:11;;;;;;;0.20;0.20;;;21.00;53.90;;;;;;6215252;28;20038;-68
2021/11/22 03:40:13;;;;;;;0.50;0.50;;;21.00;54.00;;;;;;6216459;28;20028;-68
2021/11/22 03:43:16;;;;;;;0.30;0.30;;;21.00;53.90;;;;;;6219541;28;20038;-68
2021/11/22 03:46:18;;;;;;;1.05;0.38;;;21.00;53.90;;;;;;6218693;28;20049;-68
2021/11/22 03:49:20;;;;;;;0.60;0.50;;;21.00;53.90;;;;;;6220276;28;20109;-68
2021/11/22 03:52:20;;;;;;;0.55;0.43;;;21.00;53.90;;;;;;6213099;28;20065;-68
2021/11/22 03:55:22;;;;;;;0.70;0.50;;;21.00;53.90;;;;;;6194916;28;20492;-68
2021/11/22 03:58:23;;;;;;;0.50;0.30;;;21.00;53.90;;;;;;6210121;28;20029;-68
2021/11/22 04:01:24;;;;;;;0.28;0.28;;;21.00;53.90;;;;;;6220297;28;20030;-68
2021/11/22 04:04:24;;;;;;;0.60;0.30;;;21.00;53.90;;;;;;6198039;28;20026;-68
2021/11/22 04:07:25;;;;;;;0.88;0.40;;;21.00;53.90;;;;;;6198607;28;20025;-68
2021/11/22 04:10:26;;;;;;;0.40;0.40;;;21.00;53.90;;;;;;6219506;28;20030;-68
2021/11/22 04:13:27;;;;;;;0.40;0.40;;;21.00;53.90;;;;;;6212642;28;20439;-68
2021/11/22 04:16:27;;;;;;;0.20;0.20;;;21.00;53.90;;;;;;6195721;28;20026;-68
2021/11/22 04:19:28;;;;;;;0.70;0.40;;;21.00;53.90;;;;;;6213330;28;20033;-68
2021/11/22 04:22:29;;;;;;;0.52;0.30;;;21.00;53.90;;;;;;6217939;28;20026;-68
2021/11/22 04:25:29;;;;;;;0.40;0.30;;;21.00;53.80;;;;;;6195280;28;20025;-68
2021/11/22 04:28:30;;;;;;;0.40;0.35;;;21.00;53.90;;;;;;6214405;28;20033;-68
2021/11/22 04:31:31;;;;;;;0.30;0.30;;;21.00;53.90;;;;;;6206087;28;20467;-68
2021/11/22 04:34:33;;;;;;;0.28;0.28;;;21.00;53.90;;;;;;6219650;28;20034;-68
2021/11/22 04:37:34;;;;;;;0.38;0.38;;;21.00;53.90;;;;;;6218434;28;20415;-68
2021/11/22 04:40:36;;;;;;;0.20;0.20;;;21.00;53.80;;;;;;6234295;28;20037;-68
2021/11/22 04:43:36;;;;;;;0.50;0.30;;;21.00;53.80;;;;;;6219209;28;20033;-68
2021/11/22 04:46:37;;;;;;;0.60;0.40;;;21.00;53.80;;;;;;6216660;28;20025;-68
2021/11/22 04:49:38;;;;;;;0.40;0.40;;;21.00;53.80;;;;;;6193719;28;20014;-68
2021/11/22 04:52:39;;;;;;;0.38;0.30;;;21.00;53.80;;;;;;6204433;28;20075;-68
2021/11/22 04:55:40;;;;;;;0.38;0.28;;;21.00;53.80;;;;;;6219040;28;20026;-68
2021/11/22 04:58:41;;;;;;;1.00;0.20;;;21.00;53.80;;;;;;6218299;28;20069;-68
2021/11/22 05:01:42;;;;;;;0.40;0.30;;;21.00;53.80;;;;;;6216686;28;20026;-68
2021/11/22 05:04:42;;;;;;;0.40;0.28;;;21.00;54.20;;;;;;6233679;28;20034;-68
2021/11/22 05:07:44;;;;;;;0.40;0.30;;;21.00;53.80;;;;;;6210535;28;20515;-68
2021/11/22 05:10:45;;;;;;;0.40;0.30;;;21.00;53.90;;;;;;6192983;28;20022;-68
2021/11/22 05:13:46;;;;;;;0.20;0.20;;;21.00;53.90;;;;;;6199207;28;20137;-68
2021/11/22 05:16:47;;;;;;;0.35;0.30;;;21.00;53.80;;;;;;6209971;28;20038;-68
2021/11/22 05:19:49;;;;;;;0.30;0.30;;;21.00;53.80;;;;;;6195035;28;20026;-68
2021/11/22 05:22:49;;;;;;;0.20;0.20;;;21.00;53.80;;;;;;6199151;28;20026;-68
2021/11/22 05:25:50;;;;;;;0.25;0.25;;;21.00;53.80;;;;;;6208089;28;20018;-68
2021/11/22 05:28:51;;;;;;;0.22;0.22;;;21.00;53.80;;;;;;6232447;28;20033;-68
2021/11/22 05:31:52;;;;;;;0.40;0.20;;;21.00;53.80;;;;;;6185524;28;20026;-68
2021/11/22 05:34:55;;;;;;;2.65;0.40;;;21.00;53.70;;;;;;6192831;28;20061;-68
2021/11/22 05:37:56;;;;;;;0.40;0.38;;;21.00;53.70;;;;;;6208317;28;20026;-68
2021/11/22 05:40:56;;;;;;;0.20;0.20;;;21.00;53.70;;;;;;6233794;28;20076;-68
2021/11/22 05:43:57;;;;;;;0.90;0.30;;;21.00;53.70;;;;;;6196585;28;20022;-68
2021/11/22 05:46:58;;;;;;;0.40;0.30;;;21.00;53.70;;;;;;6197039;28;20510;-68
2021/11/22 05:50:06;;;;;;;0.80;0.30;;;21.00;53.70;;;;;;6218131;28;20033;-68
2021/11/22 05:53:07;;;;;;;0.20;0.20;;;21.00;53.70;;;;;;6216545;28;20026;-71
2021/11/22 05:56:09;;;;;;;0.20;0.20;;;21.00;53.80;;;;;;6217853;28;20021;-68
2021/11/22 05:59:09;;;;;;;0.30;0.30;;;21.00;53.70;;;;;;6211917;28;20519;-68
2021/11/22 06:02:10;;;;;;;0.90;0.20;;;21.00;53.70;;;;;;6195615;28;20034;-68
2021/11/22 06:05:11;;;;;;;0.20;0.20;;;21.00;53.70;;;;;;6217423;28;20029;-69
2021/11/22 06:08:11;;;;;;;0.40;0.30;;;21.00;53.70;;;;;;6217225;28;20029;-68
2021/11/22 06:11:13;;;;;;;1.08;0.20;;;21.00;53.70;;;;;;6217917;28;20368;-69
2021/11/22 06:14:15;;;;;;;0.20;0.20;;;21.00;53.70;;;;;;6201818;28;20050;-68
2021/11/22 06:17:16;;;;;;;0.20;0.20;;;21.00;53.70;;;;;;6193277;28;20104;-68
2021/11/22 06:20:16;;;;;;;0.10;0.10;;;21.00;53.80;;;;;;6214894;28;20022;-68
2021/11/22 06:23:18;;;;;;;0.22;0.20;;;21.00;53.80;;;;;;6211411;28;20114;-68
2021/11/22 06:26:19;;;;;;;0.25;0.22;;;21.00;53.90;;;;;;6206811;28;20022;-68
2021/11/22 06:29:21;;;;;;;0.30;0.30;;;21.00;53.80;;;;;;6215540;28;20025;-68
2021/11/22 06:32:25;;;;;;;0.30;0.22;;;21.00;53.70;;;;;;6204262;28;20176;-68
2021/11/22 06:35:26;;;;;;;0.30;0.30;;;21.00;53.70;;;;;;6232352;28;20592;-68
2021/11/22 06:38:27;;;;;;;0.20;0.20;;;21.00;53.70;;;;;;6210292;28;20029;-68
2021/11/22 06:41:28;;;;;;;0.20;0.20;;;21.00;53.80;;;;;;6216811;28;20402;-68
2021/11/22 06:44:29;;;;;;;0.50;0.22;;;21.00;53.70;;;;;;6217164;28;20076;-68
2021/11/22 06:47:30;;;;;;;1.27;0.40;;;21.10;53.80;;;;;;6207224;28;20030;-68
2021/11/22 06:50:32;;;;;;;0.25;0.20;;;21.10;53.70;;;;;;6192639;28;20026;-69
2021/11/22 06:53:32;;;;;;;0.93;0.30;;;21.10;53.70;;;;;;6179280;28;20458;-68
2021/11/22 06:56:33;;;;;;;1.45;0.40;;;21.10;53.70;;;;;;6192307;28;20049;-69
2021/11/22 06:59:40;;;;;;;0.30;0.20;;;21.10;53.70;;;;;;6191993;28;20034;-70
2021/11/22 07:02:41;;;;;;;0.32;0.32;;;21.10;53.80;;;;;;6194547;28;20062;-66
2021/11/22 07:05:42;;;;;;;0.65;0.30;;;21.10;53.80;;;;;;6199064;28;20027;-69
2021/11/22 07:08:43;;;;;;;0.30;0.30;;;21.10;53.80;;;;;;6201363;28;20447;-69
2021/11/22 07:11:46;;;;;;;1.75;0.40;;;21.10;53.80;;;;;;6201954;28;20294;-67
2021/11/22 07:14:46;;;;;;;1.15;0.60;;;21.10;53.80;;;;;;6218102;28;20129;-70
2021/11/22 07:17:49;;;;;;;1.80;0.52;;;21.10;53.90;;;;;;6217121;28;20022;-65
2021/11/22 07:20:49;;;;;;;3.05;0.30;;;21.10;53.90;;;;;;6223731;28;20132;-65
2021/11/22 07:23:51;;;;;;;1.30;0.40;;;21.10;53.90;;;;;;6213023;28;20026;-66
2021/11/22 07:26:52;;;;;;;6.85;0.50;;;21.10;53.90;;;;;;6204164;28;20034;-66
2021/11/22 07:29:56;;;;;;;1.42;0.50;;;21.10;53.90;;;;;;6211383;28;20023;-66
2021/11/22 07:32:56;;;;;;;2.35;0.60;;;21.10;53.90;;;;;;6200064;28;20088;-67
2021/11/22 07:35:57;;;;;;;4.07;0.77;;;21.10;53.90;;;;;;6223371;28;20030;-67
2021/11/22 07:39:00;;;;;;;1.77;0.63;;;21.10;53.90;;;;;;6228577;28;20026;-66
2021/11/22 07:42:00;;;;;;;2.50;0.82;;;21.10;53.90;;;;;;6200071;28;20102;-66
2021/11/22 07:45:02;;;;;;;2.03;0.70;;;21.10;53.90;;;;;;6198194;28;20389;-66
2021/11/22 07:48:04;;;;;;;4.68;0.60;;;21.10;54.00;;;;;;6197007;28;20037;-66
2021/11/22 07:51:04;;;;;;;3.38;1.05;;;21.10;54.00;;;;;;6196693;28;20027;-65
2021/11/22 07:54:05;;;;;;;2.10;0.70;;;21.10;54.00;;;;;;6218511;28;20072;-66
2021/11/22 07:57:06;;;;;;;4.15;0.60;;;21.10;54.00;;;;;;6233972;28;20041;-65
2021/11/22 08:00:12;;;;;;;3.05;0.63;;;21.10;54.00;;;;;;6218918;28;20022;-65
2021/11/22 08:03:12;;;;;;;3.78;0.80;;;21.20;54.20;;;;;;6212592;28;20563;-66
2021/11/22 08:06:14;;;;;;;3.45;0.70;;;21.20;54.30;;;;;;6199020;28;20030;-65
2021/11/22 08:09:25;;;;;;;8.80;1.10;;;21.20;54.30;;;;;;6231123;28;20018;-65
2021/11/22 08:12:28;;;;;;;5.78;0.70;;;21.20;54.40;;;;;;6198837;28;20054;-65
2021/11/22 08:15:31;;;;;;;6.05;1.48;;;21.20;54.40;;;;;;6212655;28;20041;-65
2021/11/22 08:18:33;;;;;;;4.28;0.60;;;21.20;54.50;;;;;;6207447;28;20132;-65
2021/11/22 08:21:36;;;;;;;1.83;0.65;;;21.20;54.50;;;;;;6214055;28;20049;-65
2021/11/22 08:24:39;;;;;;;3.28;0.70;;;21.20;54.50;;;;;;6211357;28;20018;-64
2021/11/22 08:27:43;;;;;;;1.85;0.60;;;21.20;54.50;;;;;;6196166;28;20053;-65
2021/11/22 08:30:52;;;;;;;4.18;0.80;;;21.20;54.50;;;;;;6204755;28;20074;-65
2021/11/22 08:33:56;;;;;;;1.63;0.50;;;21.20;54.50;;;;;;6219252;28;20112;-65
2021/11/22 08:36:57;;;;;;;1.30;0.40;;;21.20;54.60;;;;;;6219925;28;20502;-65
2021/11/22 08:39:58;;;;;;;7.53;0.80;;;21.20;54.50;;;;;;6213094;28;20027;-65
2021/11/22 08:43:01;;;;;;;1.60;0.60;;;21.20;54.40;;;;;;6211798;28;20487;-65
2021/11/22 08:46:02;;;;;;;1.85;0.70;;;21.20;54.40;;;;;;6202816;28;20026;-66
2021/11/22 08:49:07;;;;;;;6.13;0.60;;;21.20;54.40;;;;;;6216370;28;20033;-66
2021/11/22 08:52:12;;;;;;;0.40;0.40;;;21.20;54.40;;;;;;6215497;28;20030;-66
2021/11/22 08:55:18;;;;;;;1.85;0.52;;;21.20;54.40;;;;;;6205524;28;20064;-65
2021/11/22 08:58:22;;;;;;;0.95;0.40;;;21.20;54.40;;;;;;6204252;28;20503;-65
2021/11/22 09:01:23;;;;;;;1.80;0.47;;;21.20;54.30;;;;;;6188101;28;20563;-65
2021/11/22 09:04:25;;;;;;;1.13;0.50;;;21.20;54.30;;;;;;6211526;28;20496;-65
2021/11/22 09:07:25;;;;;;;0.80;0.50;;;21.20;54.30;;;;;;6195802;28;20022;-65
2021/11/22 09:10:27;;;;;;;1.58;0.50;;;21.20;54.40;;;;;;6220963;28;20108;-65
2021/11/22 09:13:28;;;;;;;0.70;0.50;;;21.20;54.30;;;;;;6216451;28;20554;-66
2021/11/22 09:16:29;;;;;;;0.60;0.52;;;21.20;54.40;;;;;;6218520;28;20025;-65
2021/11/22 09:19:30;;;;;;;0.90;0.50;;;21.20;54.40;;;;;;6202057;28;20507;-65
2021/11/22 09:22:31;;;;;;;1.45;0.60;;;21.20;54.40;;;;;;6206262;28;20030;-65
2021/11/22 09:25:33;;;;;;;1.05;0.50;;;21.20;54.40;;;;;;6216146;28;20549;-65
2021/11/22 09:28:34;;;;;;;0.95;0.50;;;21.20;54.40;;;;;;6206855;28;20076;-65
2021/11/22 09:31:35;;;;;;;1.08;0.60;;;21.20;54.40;;;;;;6182439;28;20054;-65
2021/11/22 09:34:37;;;;;;;1.23;0.60;;;21.20;54.40;;;;;;6180879;28;20030;-65
2021/11/22 09:37:38;;;;;;;1.85;0.60;;;21.20;54.40;;;;;;6185391;28;20034;-65
2021/11/22 09:40:39;;;;;;;0.70;0.45;;;21.20;54.40;;;;;;6207803;28;20117;-65
2021/11/22 09:43:45;;;;;;;2.30;0.57;;;21.20;54.40;;;;;;6206038;28;20052;-65
2021/11/22 09:46:48;;;;;;;0.93;0.50;;;21.20;54.40;;;;;;6216666;28;20030;-65
2021/11/22 09:49:54;;;;;;;1.00;0.50;;;21.20;54.50;;;;;;6210579;28;20383;-65
2021/11/22 09:52:55;;;;;;;3.55;0.65;;;21.20;54.60;;;;;;6201762;28;20043;-65
2021/11/22 09:55:56;;;;;;;4.47;0.60;;;21.20;54.60;;;;;;6217028;28;20129;-65
2021/11/22 09:58:56;;;;;;;1.30;0.60;;;21.20;54.50;;;;;;6204378;28;20030;-65
2021/11/22 10:02:00;;;;;;;5.78;0.50;;;21.20;54.50;;;;;;6195815;28;20033;-65
2021/11/22 10:05:21;;;;;;;1.92;0.70;;;21.20;54.50;;;;;;6193349;28;20030;-68
2021/11/22 10:08:22;;;;;;;0.80;0.45;;;21.20;54.50;;;;;;6194884;28;20117;-64
2021/11/22 10:11:25;;;;;;;8.38;0.82;;;21.20;54.40;;;;;;6202503;28;20041;-69
2021/11/22 10:14:28;;;;;;;3.20;0.98;;;21.20;54.00;;;;;;6188373;28;20043;-70
2021/11/22 10:17:39;;;;;;;0.82;0.40;;;21.10;52.40;;;;;;6196545;28;20780;-68
2021/11/22 10:20:39;;;;;;;4.03;0.70;;;21.10;52.90;;;;;;6197192;28;20019;-68
2021/11/22 10:23:43;;;;;;;1.25;0.50;;;21.10;51.20;;;;;;6196282;28;20423;-68
2021/11/22 10:26:51;;;;;;;2.97;0.50;;;21.10;49.50;;;;;;6202508;28;20435;-68
2021/11/22 10:29:52;;;;;;;3.10;0.68;;;21.10;50.00;;;;;;6208550;28;20411;-70
2021/11/22 10:33:00;;;;;;;3.70;0.60;;;21.10;50.00;;;;;;6194941;28;20384;-69
2021/11/22 10:36:08;;;;;;;56.10;3.15;;;21.20;51.00;;;;;;6196364;28;20062;-69
2021/11/22 10:39:10;;;;;;;28.00;1.23;;;21.20;51.30;;;;;;6195979;28;20057;-68
2021/11/22 10:42:29;;;;;;;16.52;1.45;;;21.20;51.40;;;;;;6196294;28;20065;-69
2021/11/22 10:45:32;;;;;;;15.23;1.63;;;21.20;51.50;;;;;;6171890;28;20500;-69
2021/11/22 10:48:33;;;;;;;16.35;1.20;;;21.20;51.70;;;;;;6184725;28;20515;-68
2021/11/22 10:51:40;;;;;;;7.78;1.08;;;21.20;51.80;;;;;;6218405;28;20022;-68
2021/11/22 10:54:59;;;;;;;12.23;1.08;;;21.20;51.90;;;;;;6195121;28;20018;-69
2021/11/22 10:58:00;;;;;;;7.47;1.08;;;21.20;51.90;;;;;;6197570;28;20137;-69
2021/11/22 11:01:24;;;;;;;4.05;0.85;;;21.20;52.00;;;;;;6213440;28;20470;-68
2021/11/22 11:04:34;;;;;;;4.70;0.80;;;21.20;52.10;;;;;;6209760;28;20610;-68
2021/11/22 11:07:35;;;;;;;4.57;1.05;;;21.20;52.10;;;;;;6216819;28;20387;-69
2021/11/22 11:10:37;;;;;;;4.75;0.90;;;21.20;52.10;;;;;;6216012;28;20057;-68
2021/11/22 11:13:46;;;;;;;1.98;0.50;;;21.20;52.30;;;;;;6219373;28;20061;-68
2021/11/22 11:16:47;;;;;;;1.83;0.77;;;21.20;52.30;;;;;;6229599;28;20058;-68
2021/11/22 11:19:51;;;;;;;1.38;0.43;;;21.20;52.30;;;;;;6196200;28;20076;-68
2021/11/22 11:22:53;;;;;;;5.70;1.25;;;21.20;52.30;;;;;;6198712;28;20030;-69
2021/11/22 11:25:53;;;;;;;1.23;0.73;;;21.20;52.40;;;;;;6218478;28;20018;-69
2021/11/22 11:28:55;;;;;;;1.67;0.60;;;21.20;52.40;;;;;;6205488;28;20098;-68
2021/11/22 11:31:56;;;;;;;2.30;0.70;;;21.20;52.40;;;;;;6211636;28;20129;-69
2021/11/22 11:34:58;;;;;;;4.75;0.63;;;21.20;52.60;;;;;;6194488;28;20026;-68
2021/11/22 11:38:08;;;;;;;5.72;0.80;;;21.20;52.70;;;;;;6203062;28;20121;-67
2021/11/22 11:41:36;;;;;;;1.98;0.70;;;21.20;52.90;;;;;;6194553;28;20054;-68
2021/11/22 11:45:02;;;;;;;3.97;1.05;;;21.20;52.60;;;;;;6193178;28;20045;-67
2021/11/22 11:48:37;;;;;;;3.63;0.75;;;21.20;52.60;;;;;;6184171;28;20134;-67
2021/11/22 11:51:47;;;;;;;4.35;0.77;;;21.20;52.70;;;;;;6195082;28;20022;-67
2021/11/22 11:54:48;;;;;;;5.30;1.20;;;21.20;51.00;;;;;;6196284;28;20022;-67
2021/11/22 11:58:10;;;;;;;2.42;0.70;;;21.20;50.30;;;;;;6195356;28;20480;-67
2021/11/22 12:01:17;;;;;;;3.10;0.90;;;21.20;50.50;;;;;;6196657;28;20024;-67
2021/11/22 12:04:17;;;;;;;2.30;0.60;;;21.20;51.00;;;;;;6200657;28;20038;-67
2021/11/22 12:07:27;;;;;;;3.50;0.80;;;21.20;51.20;;;;;;6201629;28;20027;-67
2021/11/22 12:10:28;;;;;;;1.52;0.73;;;21.20;51.40;;;;;;6200758;28;20383;-67
2021/11/22 12:13:50;;;;;;;0.93;0.60;;;21.20;51.40;;;;;;6200599;28;20050;-67
2021/11/22 12:16:50;;;;;;;0.95;0.60;;;21.20;51.50;;;;;;6200705;28;20050;-67
2021/11/22 12:19:51;;;;;;;1.73;0.70;;;21.20;51.50;;;;;;6200454;28;20026;-67
2021/11/22 12:22:57;;;;;;;1.35;0.52;;;21.10;51.40;;;;;;6200618;28;20395;-67
2021/11/22 12:26:00;;;;;;;1.42;0.60;;;21.20;51.60;;;;;;6211206;28;20025;-67
2021/11/22 12:29:07;;;;;;;3.70;0.77;;;21.20;51.50;;;;;;6197505;28;20079;-67
2021/11/22 12:32:24;;;;;;;1.38;0.90;;;21.20;51.50;;;;;;6206459;28;20026;-67
2021/11/22 12:35:36;;;;;;;1.67;0.63;;;21.20;51.60;;;;;;6204085;28;20092;-67
2021/11/22 12:38:40;;;;;;;4.20;0.70;;;21.20;51.60;;;;;;6216872;28;20080;-67
2021/11/22 12:41:42;;;;;;;2.28;1.00;;;21.20;51.70;;;;;;6222635;28;20026;-67
2021/11/22 12:44:56;;;;;;;1.02;0.60;;;21.20;51.70;;;;;;6221411;28;20113;-67
2021/11/22 12:47:57;;;;;;;1.08;0.70;;;21.20;51.60;;;;;;6209702;28;20034;-67
2021/11/22 12:51:00;;;;;;;2.13;0.70;;;21.20;51.60;;;;;;6198037;28;20092;-67
2021/11/22 12:54:04;;;;;;;2.28;0.75;;;21.20;51.60;;;;;;6217211;28;20026;-67
2021/11/22 12:57:17;;;;;;;0.98;0.60;;;21.20;51.70;;;;;;6216904;28;20030;-67
2021/11/22 13:00:31;;;;;;;1.40;0.70;;;21.20;51.70;;;;;;6198255;28;20471;-67
2021/11/22 13:03:33;;;;;;;1.50;0.80;;;21.20;51.80;;;;;;6212663;28;20030;-69
2021/11/22 13:06:38;;;;;;;0.57;0.50;;;21.20;51.70;;;;;;6222052;28;20030;-69
2021/11/22 13:09:41;;;;;;;0.75;0.50;;;21.20;51.80;;;;;;6222042;28;20022;-69
2021/11/22 13:12:45;;;;;;;1.15;0.50;;;21.20;51.90;;;;;;6221080;28;20053;-69
2021/11/22 13:15:54;;;;;;;1.20;0.73;;;21.20;51.90;;;;;;6197530;28;20080;-69
2021/11/22 13:19:00;;;;;;;0.90;0.60;;;21.10;51.80;;;;;;6211256;28;20395;-69
2021/11/22 13:22:01;;;;;;;0.75;0.60;;;21.10;51.70;;;;;;6236510;28;20037;-69
2021/11/22 13:25:19;;;;;;;2.03;0.70;;;21.10;51.80;;;;;;6217685;28;20118;-69
2021/11/22 13:28:27;;;;;;;0.75;0.52;;;21.20;51.90;;;;;;6196757;28;20064;-69
2021/11/22 13:31:32;;;;;;;1.23;0.55;;;21.10;51.90;;;;;;6186589;28;20018;-69
2021/11/22 13:34:33;;;;;;;0.65;0.55;;;21.10;51.90;;;;;;6221494;28;20034;-69
2021/11/22 13:37:33;;;;;;;1.25;0.80;;;21.10;52.00;;;;;;6221217;28;20510;-69
2021/11/22 13:40:35;;;;;;;1.05;0.65;;;21.20;52.30;;;;;;6221299;28;20100;-69
2021/11/22 13:43:35;;;;;;;0.50;0.50;;;21.20;52.30;;;;;;6221000;28;20038;-69
2021/11/22 13:46:41;;;;;;;0.47;0.47;;;21.20;52.40;;;;;;6208613;28;20030;-69
2021/11/22 13:49:42;;;;;;;1.08;0.60;;;21.10;52.40;;;;;;6196222;28;20014;-69
2021/11/22 13:52:42;;;;;;;0.73;0.50;;;21.20;52.50;;;;;;6206190;28;20487;-69
2021/11/22 13:55:46;;;;;;;0.63;0.45;;;21.20;52.40;;;;;;6220894;28;20057;-69
2021/11/22 13:58:47;;;;;;;1.52;0.50;;;21.20;52.50;;;;;;6220551;28;20044;-69
2021/11/22 14:02:00;;;;;;;0.50;0.45;;;21.20;52.40;;;;;;6220590;28;20033;-69
2021/11/22 14:05:02;;;;;;;1.90;0.63;;;21.20;52.40;;;;;;6221327;28;20025;-69
2021/11/22 14:08:04;;;;;;;0.50;0.43;;;21.20;52.40;;;;;;6219089;28;20054;-69
2021/11/22 14:11:22;;;;;;;0.77;0.57;;;21.20;52.30;;;;;;6219371;28;20044;-69
2021/11/22 14:14:25;;;;;;;1.23;0.68;;;21.20;52.30;;;;;;6205414;28;20073;-69
2021/11/22 14:17:28;;;;;;;0.65;0.50;;;21.20;52.90;;;;;;6195909;28;20029;-69
2021/11/22 14:20:29;;;;;;;0.90;0.50;;;21.20;52.10;;;;;;6216817;28;20034;-69
2021/11/22 14:23:32;;;;;;;0.90;0.47;;;21.20;52.20;;;;;;6211718;28;20121;-69
2021/11/22 14:26:35;;;;;;;0.63;0.50;;;21.20;52.20;;;;;;6195812;28;20033;-66
2021/11/22 14:29:36;;;;;;;1.02;0.68;;;21.20;52.20;;;;;;6204359;28;20388;-66
2021/11/22 14:32:39;;;;;;;1.58;0.60;;;21.10;52.90;;;;;;6206050;28;20041;-66
2021/11/22 14:35:53;;;;;;;1.77;0.63;;;21.10;51.90;;;;;;6215650;28;20014;-66
2021/11/22 14:38:57;;;;;;;1.25;0.43;;;21.10;50.70;;;;;;6207768;28;20106;-67
2021/11/22 14:42:06;;;;;;;0.60;0.60;;;21.10;50.90;;;;;;6214275;28;20033;-68
2021/11/22 14:45:08;;;;;;;1.05;0.70;;;21.10;50.30;;;;;;6188189;28;20494;-69
2021/11/22 14:48:22;;;;;;;1.52;0.77;;;21.10;49.00;;;;;;6197175;28;20480;-69
2021/11/22 14:51:24;;;;;;;1.23;0.50;;;21.10;47.90;;;;;;6187459;28;20030;-69
2021/11/22 14:54:32;;;;;;;1.52;0.57;;;21.10;47.60;;;;;;6206551;28;20109;-69
2021/11/22 14:57:35;;;;;;;2.42;0.68;;;21.10;48.30;;;;;;6215303;28;20034;-68
2021/11/22 15:00:44;;;;;;;1.25;0.60;;;21.10;48.70;;;;;;6196073;28;20372;-68
2021/11/22 15:03:46;;;;;;;2.50;0.70;;;21.10;49.00;;;;;;6183352;28;20026;-69
2021/11/22 15:06:47;;;;;;;1.73;0.65;;;21.10;49.00;;;;;;6184410;28;20429;-68
2021/11/22 15:10:10;;;;;;;0.77;0.60;;;21.10;49.20;;;;;;6182922;28;20495;-69
2021/11/22 15:13:14;;;;;;;1.15;0.60;;;21.10;49.40;;;;;;6187572;28;20582;-67
2021/11/22 15:16:15;;;;;;;1.05;0.57;;;21.10;49.50;;;;;;6214588;28;20054;-67
2021/11/22 15:19:16;;;;;;;0.82;0.60;;;21.10;49.50;;;;;;6202687;28;20030;-67
2021/11/22 15:22:20;;;;;;;0.73;0.60;;;21.10;49.60;;;;;;6195754;28;20488;-67
2021/11/22 15:25:21;;;;;;;1.30;0.40;;;21.10;49.70;;;;;;6208703;28;20234;-67
2021/11/22 15:28:22;;;;;;;0.75;0.60;;;21.10;49.90;;;;;;6207551;28;20026;-66
2021/11/22 15:31:22;;;;;;;0.68;0.52;;;21.10;50.00;;;;;;6187139;28;20396;-67
2021/11/22 15:34:26;;;;;;;1.13;0.50;;;21.10;49.90;;;;;;6203154;28;20117;-66
2021/11/22 15:37:27;;;;;;;0.82;0.60;;;21.10;50.00;;;;;;6211581;28;20889;-67
2021/11/22 15:40:27;;;;;;;3.10;0.63;;;21.10;50.00;;;;;;6198532;28;20073;-66
2021/11/22 15:43:28;;;;;;;1.48;0.88;;;21.10;50.10;;;;;;6206090;28;20480;-66
2021/11/22 15:46:29;;;;;;;1.27;0.47;;;21.10;50.20;;;;;;6214095;28;20029;-66
2021/11/22 15:49:30;;;;;;;1.10;0.63;;;21.10;50.00;;;;;;6207680;28;20026;-67
2021/11/22 15:52:37;;;;;;;2.75;0.50;;;21.10;50.20;;;;;;6219627;28;20033;-67
2021/11/22 15:55:38;;;;;;;0.43;0.43;;;21.10;50.30;;;;;;6215072;28;20038;-67